createdAt,value
2023-12-28T00:00:11.410Z,305.11
2023-12-28T00:01:11.557Z,306.80
2023-12-28T00:02:11.566Z,305.39
2023-12-28T00:03:11.722Z,303.15
2023-12-28T00:04:11.743Z,304.83
2023-12-28T00:05:11.872Z,303.99
2023-12-28T00:06:11.887Z,302.05
2023-12-28T00:07:11.900Z,299.05
2023-12-28T00:08:11.981Z,303.15
2023-12-28T00:09:12.649Z,302.05
2023-12-28T00:10:12.110Z,298.25
2023-12-28T00:11:12.198Z,299.87
2023-12-28T00:12:12.310Z,298.52
2023-12-28T00:13:12.397Z,298.52
2023-12-28T00:14:12.453Z,296.12
2023-12-28T00:15:12.666Z,293.76
2023-12-28T00:16:12.597Z,290.42
2023-12-28T00:17:12.665Z,286.90
2023-12-28T00:18:13.056Z,281.55
2023-12-28T00:19:12.888Z,280.59
2023-12-28T00:20:13.860Z,281.79
2023-12-28T00:21:12.965Z,285.91
2023-12-28T00:22:13.062Z,285.42
2023-12-28T00:23:13.113Z,285.91
2023-12-28T00:24:13.207Z,284.69
2023-12-28T00:25:13.296Z,289.66
2023-12-28T00:26:13.409Z,289.15
2023-12-28T00:27:13.444Z,292.46
2023-12-28T00:28:13.527Z,291.18
2023-12-28T00:29:13.598Z,291.69
2023-12-28T00:30:13.785Z,292.72
2023-12-28T00:31:13.891Z,295.07
2023-12-28T00:32:13.860Z,296.91
2023-12-28T00:33:13.968Z,298.25
2023-12-28T00:34:14.139Z,299.60
2023-12-28T00:35:14.122Z,297.71
2023-12-28T00:36:14.229Z,299.87
2023-12-28T00:37:14.244Z,300.95
2023-12-28T00:38:14.312Z,300.95
2023-12-28T00:39:14.407Z,304.55
2023-12-28T00:40:14.502Z,305.11
2023-12-28T00:41:14.563Z,304.27
2023-12-28T00:42:14.674Z,305.67
2023-12-28T00:43:14.730Z,306.80
2023-12-28T00:44:14.851Z,308.22
2023-12-28T00:45:14.930Z,304.83
2023-12-28T00:46:15.014Z,307.37
2023-12-28T00:47:15.083Z,312.28
2023-12-28T00:48:15.403Z,314.36
2023-12-28T00:49:15.320Z,312.58
2023-12-28T00:50:15.335Z,314.95
2023-12-28T00:51:15.456Z,317.97
2023-12-28T00:52:16.353Z,317.36
2023-12-28T00:53:15.594Z,321.05
2023-12-28T00:54:15.683Z,321.98
2023-12-28T00:55:15.732Z,320.74
2023-12-28T00:56:15.842Z,322.92
2023-12-28T00:57:15.905Z,323.55
2023-12-28T00:58:15.992Z,323.87
2023-12-28T00:59:16.068Z,324.82
2023-12-28T01:00:16.203Z,323.87
2023-12-28T01:01:16.317Z,323.87
2023-12-28T01:02:16.315Z,322.61
2023-12-28T01:03:16.578Z,326.10
2023-12-28T01:04:16.592Z,325.77
2023-12-28T01:05:16.601Z,324.18
2023-12-28T01:06:16.717Z,327.06
2023-12-28T01:07:16.833Z,323.55
2023-12-28T01:08:16.856Z,324.82
2023-12-28T01:09:16.971Z,327.06
2023-12-28T01:10:17.001Z,323.24
2023-12-28T01:11:17.094Z,323.24
2023-12-28T01:12:17.197Z,323.55
2023-12-28T01:13:17.251Z,326.10
2023-12-28T01:14:17.325Z,327.06
2023-12-28T01:15:17.475Z,326.42
2023-12-28T01:16:17.464Z,329.33
2023-12-28T01:17:17.537Z,327.38
2023-12-28T01:18:17.716Z,327.71
2023-12-28T01:19:17.783Z,323.55
2023-12-28T01:20:17.796Z,326.42
2023-12-28T01:21:17.870Z,325.46
2023-12-28T01:22:17.945Z,323.55
2023-12-28T01:23:18.038Z,325.77
2023-12-28T01:24:18.094Z,325.14
2023-12-28T01:25:18.195Z,328.03
2023-12-28T01:26:18.260Z,326.74
2023-12-28T01:27:18.393Z,323.55
2023-12-28T01:28:18.430Z,324.18
2023-12-28T01:29:18.511Z,327.06
2023-12-28T01:30:18.671Z,327.71
2023-12-28T01:31:18.793Z,329.01
2023-12-28T01:32:18.800Z,324.82
2023-12-28T01:33:18.942Z,325.14
2023-12-28T01:34:18.990Z,326.10
2023-12-28T01:35:19.004Z,329.66
2023-12-28T01:36:19.078Z,329.01
2023-12-28T01:37:19.128Z,330.32
2023-12-28T01:38:19.210Z,329.66
2023-12-28T01:39:19.328Z,326.74
2023-12-28T01:40:19.368Z,324.18
2023-12-28T01:41:19.453Z,327.06
2023-12-28T01:42:19.530Z,324.82
2023-12-28T01:43:19.674Z,322.61
2023-12-28T01:44:20.696Z,323.24
2023-12-28T01:45:19.808Z,323.55
2023-12-28T01:46:19.911Z,321.98
2023-12-28T01:47:19.924Z,317.36
2023-12-28T01:48:20.071Z,315.85
2023-12-28T01:49:20.142Z,316.45
2023-12-28T01:50:20.156Z,319.50
2023-12-28T01:51:20.299Z,321.36
2023-12-28T01:52:20.380Z,318.27
2023-12-28T01:53:20.409Z,318.27
2023-12-28T01:54:20.509Z,317.06
2023-12-28T01:55:20.630Z,313.46
2023-12-28T01:56:20.621Z,313.17
2023-12-28T01:57:20.748Z,311.11
2023-12-28T01:58:20.842Z,309.37
2023-12-28T01:59:20.905Z,308.51
2023-12-28T02:00:21.012Z,309.95
2023-12-28T02:01:21.149Z,309.08
2023-12-28T02:02:21.141Z,305.67
2023-12-28T02:03:21.287Z,306.80
2023-12-28T02:04:21.362Z,307.08
2023-12-28T02:05:21.411Z,307.37
2023-12-28T02:06:21.530Z,302.60
2023-12-28T02:07:21.580Z,298.25
2023-12-28T02:08:21.627Z,299.33
2023-12-28T02:09:21.754Z,299.05
2023-12-28T02:10:21.778Z,296.91
2023-12-28T02:11:21.871Z,295.86
2023-12-28T02:12:22.046Z,295.33
2023-12-28T02:13:22.047Z,295.59
2023-12-28T02:14:22.099Z,293.50
2023-12-28T02:15:22.257Z,291.18
2023-12-28T02:16:22.280Z,289.91
2023-12-28T02:17:22.420Z,286.41
2023-12-28T02:18:22.531Z,286.65
2023-12-28T02:19:23.256Z,282.75
2023-12-28T02:20:22.601Z,282.51
2023-12-28T02:21:22.720Z,277.54
2023-12-28T02:22:22.785Z,272.30
2023-12-28T02:23:22.848Z,271.86
2023-12-28T02:24:23.015Z,273.20
2023-12-28T02:25:23.010Z,274.10
2023-12-28T02:26:23.113Z,271.64
2023-12-28T02:27:23.166Z,274.10
2023-12-28T02:28:23.215Z,272.75
2023-12-28T02:29:23.314Z,271.64
2023-12-28T02:30:23.797Z,269.65
2023-12-28T02:31:23.571Z,267.26
2023-12-28T02:32:23.519Z,266.19
2023-12-28T02:33:23.748Z,266.40
2023-12-28T02:34:23.788Z,265.55
2023-12-28T02:35:23.793Z,261.98
2023-12-28T02:36:23.875Z,257.91
2023-12-28T02:37:23.930Z,256.52
2023-12-28T02:38:24.021Z,254.35
2023-12-28T02:39:24.168Z,252.99
2023-12-28T02:40:24.174Z,252.80
2023-12-28T02:41:24.246Z,251.84
2023-12-28T02:42:24.362Z,251.08
2023-12-28T02:43:24.429Z,250.70
2023-12-28T02:44:24.499Z,251.65
2023-12-28T02:45:24.633Z,253.57
2023-12-28T02:46:24.693Z,251.46
2023-12-28T02:47:24.748Z,250.32
2023-12-28T02:48:25.023Z,249.57
2023-12-28T02:49:25.817Z,247.71
2023-12-28T02:50:24.994Z,246.05
2023-12-28T02:51:25.073Z,245.87
2023-12-28T02:52:25.124Z,243.52
2023-12-28T02:53:25.190Z,242.46
2023-12-28T02:54:25.320Z,240.87
2023-12-28T02:55:25.357Z,239.48
2023-12-28T02:56:25.456Z,238.62
2023-12-28T02:57:25.535Z,239.31
2023-12-28T02:58:25.590Z,238.11
2023-12-28T02:59:25.652Z,235.57
2023-12-28T03:00:25.747Z,234.57
2023-12-28T03:01:25.894Z,233.09
2023-12-28T03:02:25.950Z,234.41
2023-12-28T03:03:26.030Z,232.60
2023-12-28T03:04:26.047Z,234.41
2023-12-28T03:05:26.142Z,232.60
2023-12-28T03:06:26.295Z,233.42
2023-12-28T03:07:26.350Z,228.59
2023-12-28T03:08:26.402Z,228.59
2023-12-28T03:09:26.510Z,226.87
2023-12-28T03:10:26.583Z,225.64
2023-12-28T03:11:26.647Z,223.81
2023-12-28T03:12:26.774Z,222.31
2023-12-28T03:13:26.816Z,221.27
2023-12-28T03:14:26.919Z,219.08
2023-12-28T03:15:27.048Z,217.93
2023-12-28T03:16:27.797Z,215.95
2023-12-28T03:17:27.228Z,214.13
2023-12-28T03:18:27.470Z,214.13
2023-12-28T03:19:27.360Z,214.41
2023-12-28T03:20:27.404Z,213.45
2023-12-28T03:21:27.579Z,214.41
2023-12-28T03:22:27.538Z,215.53
2023-12-28T03:23:27.682Z,213.17
2023-12-28T03:24:27.727Z,211.81
2023-12-28T03:25:27.759Z,211.14
2023-12-28T03:26:27.869Z,209.27
2023-12-28T03:27:28.096Z,208.09
2023-12-28T03:28:28.067Z,207.31
2023-12-28T03:29:28.101Z,207.18
2023-12-28T03:30:28.241Z,207.18
2023-12-28T03:31:28.308Z,206.41
2023-12-28T03:32:28.413Z,206.02
2023-12-28T03:33:28.623Z,205.01
2023-12-28T03:34:29.435Z,202.01
2023-12-28T03:35:28.601Z,200.79
2023-12-28T03:36:28.706Z,200.67
2023-12-28T03:37:28.765Z,198.86
2023-12-28T03:38:28.847Z,198.51
2023-12-28T03:39:28.944Z,197.32
2023-12-28T03:40:28.999Z,195.70
2023-12-28T03:41:29.091Z,195.70
2023-12-28T03:42:29.154Z,194.78
2023-12-28T03:43:29.213Z,193.08
2023-12-28T03:44:29.801Z,193.41
2023-12-28T03:45:29.519Z,191.63
2023-12-28T03:46:29.500Z,190.64
2023-12-28T03:47:29.588Z,190.74
2023-12-28T03:48:29.906Z,191.74
2023-12-28T03:49:29.797Z,190.31
2023-12-28T03:50:29.775Z,188.36
2023-12-28T03:51:29.958Z,188.79
2023-12-28T03:52:29.962Z,188.15
2023-12-28T03:53:29.993Z,188.36
2023-12-28T03:54:30.100Z,187.94
2023-12-28T03:55:30.146Z,187.09
2023-12-28T03:56:30.235Z,187.51
2023-12-28T03:57:30.349Z,185.93
2023-12-28T03:58:30.418Z,186.05
2023-12-28T03:59:30.483Z,184.63
2023-12-28T04:00:31.343Z,183.42
2023-12-28T04:01:30.706Z,182.24
2023-12-28T04:02:30.718Z,181.26
2023-12-28T04:03:30.865Z,181.84
2023-12-28T04:04:31.097Z,180.10
2023-12-28T04:05:31.041Z,178.57
2023-12-28T04:06:31.105Z,179.71
2023-12-28T04:07:31.189Z,178.76
2023-12-28T04:08:31.251Z,177.44
2023-12-28T04:09:31.372Z,177.26
2023-12-28T04:10:31.422Z,177.82
2023-12-28T04:11:31.496Z,177.63
2023-12-28T04:12:31.580Z,178.95
2023-12-28T04:13:31.639Z,180.87
2023-12-28T04:14:31.715Z,181.45
2023-12-28T04:15:31.843Z,182.43
2023-12-28T04:16:31.913Z,183.22
2023-12-28T04:17:32.839Z,182.04
2023-12-28T04:18:32.147Z,181.84
2023-12-28T04:19:32.200Z,182.83
2023-12-28T04:20:32.194Z,183.82
2023-12-28T04:21:32.275Z,182.83
2023-12-28T04:22:32.370Z,184.43
2023-12-28T04:23:32.425Z,184.63
2023-12-28T04:24:32.536Z,185.64
2023-12-28T04:25:32.582Z,184.83
2023-12-28T04:26:32.661Z,185.52
2023-12-28T04:27:32.768Z,185.85
2023-12-28T04:28:32.824Z,184.22
2023-12-28T04:29:32.904Z,182.63
2023-12-28T04:30:33.073Z,182.63
2023-12-28T04:31:33.143Z,181.45
2023-12-28T04:32:33.166Z,180.48
2023-12-28T04:33:33.260Z,182.24
2023-12-28T04:34:33.346Z,183.03
2023-12-28T04:35:33.374Z,185.85
2023-12-28T04:36:33.449Z,185.31
2023-12-28T04:37:33.516Z,186.14
2023-12-28T04:38:33.634Z,185.73
2023-12-28T04:39:33.732Z,186.56
2023-12-28T04:40:33.779Z,186.88
2023-12-28T04:41:33.853Z,187.19
2023-12-28T04:42:33.990Z,186.46
2023-12-28T04:43:34.010Z,186.35
2023-12-28T04:44:34.059Z,185.93
2023-12-28T04:45:34.163Z,186.05
2023-12-28T04:46:34.226Z,185.24
2023-12-28T04:47:34.357Z,185.85
2023-12-28T04:48:34.635Z,183.42
2023-12-28T04:49:34.577Z,183.62
2023-12-28T04:50:35.662Z,184.43
2023-12-28T04:51:34.689Z,184.22
2023-12-28T04:52:34.728Z,185.52
2023-12-28T04:53:35.711Z,186.67
2023-12-28T04:54:34.891Z,186.46
2023-12-28T04:55:34.954Z,187.09
2023-12-28T04:56:35.036Z,189.01
2023-12-28T04:57:35.132Z,188.90
2023-12-28T04:58:35.205Z,189.76
2023-12-28T04:59:35.240Z,189.12
2023-12-28T05:00:35.485Z,188.26
2023-12-28T05:01:35.548Z,189.01
2023-12-28T05:02:35.486Z,190.31
2023-12-28T05:03:35.642Z,190.74
2023-12-28T05:04:35.710Z,191.74
2023-12-28T05:05:35.740Z,191.07
2023-12-28T05:06:35.821Z,190.64
2023-12-28T05:07:35.865Z,186.77
2023-12-28T05:08:35.928Z,185.62
2023-12-28T05:09:36.045Z,185.62
2023-12-28T05:10:36.090Z,186.88
2023-12-28T05:11:36.162Z,186.56
2023-12-28T05:12:43.690Z,187.09
2023-12-28T05:13:36.357Z,187.19
2023-12-28T05:14:36.450Z,186.98
2023-12-28T05:15:36.568Z,186.56
2023-12-28T05:16:36.585Z,186.46
2023-12-28T05:17:36.701Z,185.93
2023-12-28T05:18:36.848Z,186.25
2023-12-28T05:19:36.997Z,186.46
2023-12-28T05:20:36.946Z,188.47
2023-12-28T05:21:37.167Z,187.19
2023-12-28T05:22:37.170Z,186.77
2023-12-28T05:23:37.158Z,187.09
2023-12-28T05:24:37.271Z,186.56
2023-12-28T05:25:37.325Z,185.42
2023-12-28T05:26:37.395Z,188.04
2023-12-28T05:27:37.533Z,188.90
2023-12-28T05:28:37.559Z,188.68
2023-12-28T05:29:37.621Z,188.36
2023-12-28T05:30:37.853Z,187.72
2023-12-28T05:31:38.136Z,187.62
2023-12-28T05:32:37.887Z,188.47
2023-12-28T05:33:38.069Z,188.26
2023-12-28T05:34:38.178Z,188.04
2023-12-28T05:35:38.100Z,188.58
2023-12-28T05:36:38.235Z,188.36
2023-12-28T05:37:38.269Z,189.22
2023-12-28T05:38:38.342Z,190.74
2023-12-28T05:39:38.525Z,191.29
2023-12-28T05:40:38.500Z,191.96
2023-12-28T05:41:38.531Z,193.87
2023-12-28T05:42:39.385Z,195.24
2023-12-28T05:43:38.711Z,195.70
2023-12-28T05:44:38.787Z,198.15
2023-12-28T05:45:38.908Z,197.56
2023-12-28T05:46:38.964Z,198.27
2023-12-28T05:47:39.108Z,198.86
2023-12-28T05:48:39.437Z,196.97
2023-12-28T05:49:39.357Z,197.32
2023-12-28T05:50:39.332Z,195.70
2023-12-28T05:51:39.409Z,195.93
2023-12-28T05:52:39.527Z,195.24
2023-12-28T05:53:39.554Z,195.24
2023-12-28T05:54:49.703Z,192.85
2023-12-28T05:55:39.694Z,193.64
2023-12-28T05:56:39.785Z,194.55
2023-12-28T05:57:39.930Z,196.16
2023-12-28T05:58:39.967Z,198.03
2023-12-28T05:59:40.092Z,201.27
2023-12-28T06:00:40.249Z,199.70
2023-12-28T06:01:40.273Z,199.22
2023-12-28T06:02:40.316Z,201.03
2023-12-28T06:03:40.430Z,202.75
2023-12-28T06:04:40.674Z,200.91
2023-12-28T06:05:40.628Z,202.01
2023-12-28T06:06:40.687Z,203.50
2023-12-28T06:07:40.743Z,203.37
2023-12-28T06:08:40.890Z,202.75
2023-12-28T06:09:41.492Z,201.64
2023-12-28T06:10:40.980Z,200.18
2023-12-28T06:11:41.092Z,200.79
2023-12-28T06:12:41.218Z,202.75
2023-12-28T06:13:41.247Z,202.63
2023-12-28T06:14:41.298Z,204.12
2023-12-28T06:15:41.506Z,204.00
2023-12-28T06:16:41.464Z,206.02
2023-12-28T06:17:41.636Z,204.88
2023-12-28T06:18:41.717Z,205.90
2023-12-28T06:19:41.729Z,205.90
2023-12-28T06:20:41.817Z,209.27
2023-12-28T06:21:41.933Z,211.41
2023-12-28T06:22:41.996Z,211.27
2023-12-28T06:23:42.040Z,212.49
2023-12-28T06:24:42.198Z,214.27
2023-12-28T06:25:42.276Z,216.09
2023-12-28T06:26:42.304Z,214.97
2023-12-28T06:27:42.432Z,213.72
2023-12-28T06:28:42.473Z,214.83
2023-12-28T06:29:42.547Z,214.41
2023-12-28T06:30:42.712Z,214.55
2023-12-28T06:31:42.758Z,216.65
2023-12-28T06:32:43.525Z,215.95
2023-12-28T06:33:43.046Z,217.50
2023-12-28T06:34:43.184Z,217.22
2023-12-28T06:35:43.164Z,220.10
2023-12-28T06:36:43.182Z,221.42
2023-12-28T06:37:43.192Z,223.21
2023-12-28T06:38:43.276Z,223.36
2023-12-28T06:39:44.308Z,225.03
2023-12-28T06:40:43.477Z,226.10
2023-12-28T06:41:43.518Z,228.12
2023-12-28T06:42:43.620Z,229.86
2023-12-28T06:43:43.732Z,229.38
2023-12-28T06:44:43.751Z,230.02
2023-12-28T06:45:43.877Z,229.70
2023-12-28T06:46:43.916Z,229.54
2023-12-28T06:47:44.040Z,229.86
2023-12-28T06:48:44.201Z,230.50
2023-12-28T06:49:44.249Z,231.79
2023-12-28T06:50:44.244Z,228.75
2023-12-28T06:51:44.377Z,229.86
2023-12-28T06:52:44.426Z,231.62
2023-12-28T06:53:44.526Z,232.11
2023-12-28T06:54:44.704Z,233.25
2023-12-28T06:55:44.695Z,234.24
2023-12-28T06:56:44.770Z,236.41
2023-12-28T06:57:44.878Z,238.79
2023-12-28T06:58:44.973Z,238.11
2023-12-28T06:59:45.026Z,238.96
2023-12-28T07:00:45.251Z,238.79
2023-12-28T07:01:45.232Z,240.00
2023-12-28T07:02:45.284Z,235.91
2023-12-28T07:03:45.445Z,240.00
2023-12-28T07:04:45.433Z,242.81
2023-12-28T07:05:45.502Z,243.70
2023-12-28T07:06:45.623Z,240.70
2023-12-28T07:07:45.672Z,238.79
2023-12-28T07:08:45.769Z,241.05
2023-12-28T07:09:45.914Z,241.75
2023-12-28T07:10:45.920Z,243.35
2023-12-28T07:11:45.989Z,246.42
2023-12-28T07:12:46.127Z,247.34
2023-12-28T07:13:46.181Z,248.63
2023-12-28T07:14:46.251Z,252.23
2023-12-28T07:15:46.383Z,251.65
2023-12-28T07:16:46.406Z,252.61
2023-12-28T07:17:46.723Z,256.12
2023-12-28T07:18:46.713Z,256.91
2023-12-28T07:19:46.846Z,256.12
2023-12-28T07:20:46.761Z,253.96
2023-12-28T07:21:46.877Z,255.92
2023-12-28T07:22:46.917Z,253.96
2023-12-28T07:23:46.993Z,258.51
2023-12-28T07:24:47.089Z,257.51
2023-12-28T07:25:47.184Z,259.12
2023-12-28T07:26:47.247Z,259.73
2023-12-28T07:27:47.364Z,261.57
2023-12-28T07:28:47.417Z,261.98
2023-12-28T07:29:47.509Z,261.98
2023-12-28T07:30:47.664Z,261.16
2023-12-28T07:31:47.691Z,260.14
2023-12-28T07:32:47.826Z,259.93
2023-12-28T07:33:47.969Z,257.51
2023-12-28T07:34:47.975Z,259.52
2023-12-28T07:35:48.007Z,259.93
2023-12-28T07:36:48.101Z,256.91
2023-12-28T07:37:48.168Z,257.71
2023-12-28T07:38:48.242Z,259.32
2023-12-28T07:39:48.355Z,261.57
2023-12-28T07:40:48.397Z,265.12
2023-12-28T07:41:48.475Z,264.70
2023-12-28T07:42:48.597Z,264.70
2023-12-28T07:43:49.475Z,263.44
2023-12-28T07:44:48.704Z,261.98
2023-12-28T07:45:48.791Z,262.61
2023-12-28T07:46:48.898Z,261.57
2023-12-28T07:47:49.110Z,262.40
2023-12-28T07:48:49.114Z,260.54
2023-12-28T07:49:49.241Z,264.07
2023-12-28T07:50:49.165Z,264.49
2023-12-28T07:51:49.262Z,266.83
2023-12-28T07:52:50.374Z,268.56
2023-12-28T07:53:49.399Z,270.09
2023-12-28T07:54:50.298Z,270.53
2023-12-28T07:55:49.569Z,271.19
2023-12-28T07:56:49.627Z,272.08
2023-12-28T07:57:49.770Z,273.42
2023-12-28T07:58:49.796Z,275.70
2023-12-28T07:59:49.860Z,277.77
2023-12-28T08:00:50.076Z,271.86
2023-12-28T08:01:50.032Z,272.08
2023-12-28T08:02:50.077Z,270.31
2023-12-28T08:03:50.243Z,270.31
2023-12-28T08:04:50.566Z,269.43
2023-12-28T08:05:50.365Z,269.87
2023-12-28T08:06:50.448Z,268.99
2023-12-28T08:07:50.500Z,269.65
2023-12-28T08:08:50.588Z,266.40
2023-12-28T08:09:50.722Z,269.21
2023-12-28T08:10:50.732Z,267.47
2023-12-28T08:11:50.853Z,269.65
2023-12-28T08:12:50.983Z,271.41
2023-12-28T08:13:50.986Z,272.98
2023-12-28T08:14:51.080Z,271.64
2023-12-28T08:15:51.173Z,276.16
2023-12-28T08:16:51.216Z,274.56
2023-12-28T08:17:51.377Z,271.19
2023-12-28T08:18:51.508Z,271.86
2023-12-28T08:19:51.776Z,273.42
2023-12-28T08:20:51.509Z,275.47
2023-12-28T08:21:51.617Z,279.18
2023-12-28T08:23:01.752Z,280.36
2023-12-28T08:23:51.777Z,282.26
2023-12-28T08:24:51.854Z,283.23
2023-12-28T08:25:51.916Z,280.83
2023-12-28T08:26:51.978Z,278.71
2023-12-28T08:27:52.100Z,275.24
2023-12-28T08:28:52.141Z,275.47
2023-12-28T08:29:52.231Z,278.71
2023-12-28T08:30:52.344Z,280.59
2023-12-28T08:31:52.493Z,283.71
2023-12-28T08:32:52.578Z,284.44
2023-12-28T08:33:52.655Z,284.44
2023-12-28T08:34:52.697Z,284.44
2023-12-28T08:35:52.688Z,282.75
2023-12-28T08:36:52.816Z,283.47
2023-12-28T08:37:52.897Z,284.20
2023-12-28T08:38:52.943Z,283.23
2023-12-28T08:39:53.038Z,287.15
2023-12-28T08:40:53.149Z,289.15
2023-12-28T08:41:53.193Z,292.21
2023-12-28T08:42:53.372Z,292.72
2023-12-28T08:43:53.345Z,294.28
2023-12-28T08:44:53.424Z,296.65
2023-12-28T08:45:53.542Z,296.65
2023-12-28T08:46:53.587Z,297.98
2023-12-28T08:47:53.736Z,299.60
2023-12-28T08:48:53.856Z,302.05
2023-12-28T08:49:53.969Z,302.33
2023-12-28T08:50:53.936Z,301.77
2023-12-28T08:51:54.026Z,302.88
2023-12-28T08:52:54.083Z,305.39
2023-12-28T08:53:54.189Z,309.08
2023-12-28T08:54:54.318Z,311.11
2023-12-28T08:55:54.354Z,313.17
2023-12-28T08:56:55.988Z,316.15
2023-12-28T08:57:54.546Z,320.12
2023-12-28T08:58:54.593Z,323.24
2023-12-28T08:59:54.687Z,324.50
2023-12-28T09:00:54.814Z,326.10
2023-12-28T09:01:54.946Z,326.10
2023-12-28T09:02:55.059Z,329.01
2023-12-28T09:03:55.102Z,332.97
2023-12-28T09:04:55.116Z,334.31
2023-12-28T09:05:55.250Z,336.68
2023-12-28T09:06:55.337Z,343.66
2023-12-28T09:07:56.883Z,348.35
2023-12-28T09:08:55.476Z,348.35
2023-12-28T09:09:55.618Z,349.82
2023-12-28T09:10:55.709Z,348.71
2023-12-28T09:11:55.717Z,352.05
2023-12-28T09:12:55.892Z,350.93
2023-12-28T09:13:55.953Z,352.42
2023-12-28T09:14:55.981Z,356.97
2023-12-28T09:15:56.099Z,360.85
2023-12-28T09:16:56.122Z,358.90
2023-12-28T09:17:56.442Z,359.29
2023-12-28T09:18:56.409Z,359.29
2023-12-28T09:19:56.433Z,360.85
2023-12-28T09:20:56.447Z,367.24
2023-12-28T09:21:56.550Z,370.94
2023-12-28T09:22:56.611Z,372.18
2023-12-28T09:23:56.706Z,372.60
2023-12-28T09:24:56.790Z,373.44
2023-12-28T09:25:56.863Z,375.13
2023-12-28T09:26:56.941Z,373.44
2023-12-28T09:27:57.525Z,373.86
2023-12-28T09:28:57.086Z,381.84
2023-12-28T09:29:57.171Z,380.11
2023-12-28T09:30:58.149Z,381.19
2023-12-28T09:31:57.389Z,380.33
2023-12-28T09:32:57.767Z,381.19
2023-12-28T09:33:57.571Z,380.33
2023-12-28T09:34:57.678Z,382.05
2023-12-28T09:35:57.679Z,388.21
2023-12-28T09:36:58.588Z,389.33
2023-12-28T09:37:58.035Z,397.13
2023-12-28T09:38:57.892Z,394.80
2023-12-28T09:39:58.133Z,394.80
2023-12-28T09:40:58.043Z,394.57
2023-12-28T09:41:58.123Z,392.05
2023-12-28T09:42:58.750Z,394.11
2023-12-28T09:43:58.417Z,393.19
2023-12-28T09:44:58.375Z,391.14
2023-12-28T09:45:58.530Z,393.42
2023-12-28T09:46:58.601Z,398.77
2023-12-28T09:47:58.653Z,396.66
2023-12-28T09:48:58.838Z,397.60
2023-12-28T09:49:58.842Z,401.62
2023-12-28T09:50:58.882Z,398.54
2023-12-28T09:51:59.012Z,397.36
2023-12-28T09:52:59.407Z,394.34
2023-12-28T09:53:59.155Z,396.43
2023-12-28T09:54:59.293Z,399.01
2023-12-28T09:55:59.300Z,398.30
2023-12-28T09:57:00.098Z,400.91
2023-12-28T09:57:59.469Z,401.14
2023-12-28T09:58:59.533Z,405.24
2023-12-28T09:59:59.633Z,401.86
2023-12-28T10:00:59.751Z,403.30
2023-12-28T10:01:59.777Z,400.19
2023-12-28T10:03:00.225Z,401.14
2023-12-28T10:04:00.014Z,396.43
2023-12-28T10:05:00.060Z,400.91
2023-12-28T10:06:00.971Z,400.43
2023-12-28T10:07:00.322Z,404.03
2023-12-28T10:08:00.246Z,405.73
2023-12-28T10:09:00.318Z,403.79
2023-12-28T10:10:00.512Z,402.34
2023-12-28T10:11:00.490Z,403.79
2023-12-28T10:12:00.609Z,408.19
2023-12-28T10:13:00.902Z,409.92
2023-12-28T10:14:00.760Z,408.19
2023-12-28T10:15:00.840Z,406.22
2023-12-28T10:16:01.010Z,410.67
2023-12-28T10:17:01.000Z,410.42
2023-12-28T10:18:01.110Z,409.18
2023-12-28T10:19:01.243Z,409.92
2023-12-28T10:20:01.349Z,414.97
2023-12-28T10:21:01.315Z,415.99
2023-12-28T10:22:01.499Z,414.46
2023-12-28T10:23:01.717Z,422.51
2023-12-28T10:24:01.582Z,431.15
2023-12-28T10:25:01.661Z,437.02
2023-12-28T10:26:01.715Z,435.33
2023-12-28T10:27:01.814Z,434.49
2023-12-28T10:28:01.941Z,439.30
2023-12-28T10:29:01.969Z,439.30
2023-12-28T10:30:02.057Z,441.89
2023-12-28T10:31:02.197Z,445.10
2023-12-28T10:32:03.198Z,443.34
2023-12-28T10:33:02.932Z,443.93
2023-12-28T10:34:02.490Z,445.39
2023-12-28T10:35:02.468Z,448.35
2023-12-28T10:36:02.541Z,446.28
2023-12-28T10:37:02.699Z,445.69
2023-12-28T10:38:02.702Z,449.85
2023-12-28T10:39:02.803Z,452.26
2023-12-28T10:40:02.926Z,448.65
2023-12-28T10:41:02.946Z,447.76
2023-12-28T10:42:03.031Z,450.15
2023-12-28T10:43:04.420Z,447.46
2023-12-28T10:44:04.869Z,443.34
2023-12-28T10:45:03.325Z,444.51
2023-12-28T10:46:03.397Z,444.22
2023-12-28T10:47:03.435Z,444.22
2023-12-28T10:48:03.621Z,444.51
2023-12-28T10:49:03.710Z,448.35
2023-12-28T10:50:04.072Z,456.86
2023-12-28T10:51:03.885Z,456.55
2023-12-28T10:52:03.952Z,460.60
2023-12-28T10:53:04.014Z,469.26
2023-12-28T10:54:04.062Z,472.55
2023-12-28T10:55:04.186Z,473.21
2023-12-28T10:56:04.208Z,472.55
2023-12-28T10:57:04.320Z,465.69
2023-12-28T10:58:04.473Z,464.73
2023-12-28T10:59:04.446Z,459.04
2023-12-28T11:00:04.543Z,451.96
2023-12-28T11:01:04.743Z,456.55
2023-12-28T11:02:07.951Z,455.62
2023-12-28T11:03:04.885Z,459.98
2023-12-28T11:04:04.888Z,459.66
2023-12-28T11:05:04.994Z,457.48
2023-12-28T11:06:04.995Z,455.32
2023-12-28T11:07:05.133Z,459.98
2023-12-28T11:08:05.211Z,466.98
2023-12-28T11:09:06.344Z,474.21
2023-12-28T11:10:05.381Z,476.22
2023-12-28T11:11:05.412Z,478.58
2023-12-28T11:12:05.491Z,477.91
2023-12-28T11:13:05.670Z,476.89
2023-12-28T11:14:05.674Z,475.88
2023-12-28T11:15:07.617Z,472.88
2023-12-28T11:16:05.865Z,473.54
2023-12-28T11:17:05.945Z,476.55
2023-12-28T11:18:06.501Z,474.54
2023-12-28T11:19:06.192Z,474.88
2023-12-28T11:20:06.166Z,474.54
2023-12-28T11:21:07.754Z,469.59
2023-12-28T11:22:06.351Z,473.88
2023-12-28T11:23:06.444Z,485.13
2023-12-28T11:24:06.516Z,488.64
2023-12-28T11:25:06.610Z,489.00
2023-12-28T11:26:06.699Z,487.58
2023-12-28T11:27:09.065Z,486.88
2023-12-28T11:28:06.882Z,483.04
2023-12-28T11:29:06.935Z,485.83
2023-12-28T11:30:07.104Z,489.00
2023-12-28T11:31:07.171Z,495.46
2023-12-28T11:32:07.201Z,496.19
2023-12-28T11:33:07.325Z,500.24
2023-12-28T11:34:08.703Z,508.16
2023-12-28T11:35:07.385Z,509.31
2023-12-28T11:36:07.476Z,513.18
2023-12-28T11:37:07.563Z,522.73
2023-12-28T11:38:07.627Z,534.33
2023-12-28T11:39:07.664Z,545.57
2023-12-28T11:40:07.767Z,551.82
2023-12-28T11:41:07.840Z,555.46
2023-12-28T11:42:07.889Z,557.75
2023-12-28T11:43:08.078Z,555.46
2023-12-28T11:44:08.093Z,555.46
2023-12-28T11:45:08.171Z,555.91
2023-12-28T11:46:08.321Z,564.29
2023-12-28T11:47:08.289Z,566.66
2023-12-28T11:48:08.451Z,561.00
2023-12-28T11:49:08.728Z,559.14
2023-12-28T11:50:08.572Z,561.00
2023-12-28T11:51:08.722Z,560.54
2023-12-28T11:52:08.749Z,560.54
2023-12-28T11:53:08.809Z,559.61
2023-12-28T11:54:08.870Z,555.00
2023-12-28T11:55:09.007Z,549.12
2023-12-28T11:56:09.036Z,546.46
2023-12-28T11:57:09.185Z,544.69
2023-12-28T11:58:11.100Z,540.76
2023-12-28T11:59:09.332Z,536.88
2023-12-28T12:00:09.952Z,533.48
2023-12-28T12:01:09.495Z,534.75
2023-12-28T12:02:09.522Z,536.03
2023-12-28T12:03:09.636Z,537.74
2023-12-28T12:04:09.755Z,533.48
2023-12-28T12:05:09.719Z,530.55
2023-12-28T12:06:09.846Z,526.82
2023-12-28T12:07:09.969Z,523.14
2023-12-28T12:08:09.960Z,526.41
2023-12-28T12:09:10.012Z,525.59
2023-12-28T12:10:10.162Z,527.64
2023-12-28T12:11:10.146Z,523.54
2023-12-28T12:12:10.272Z,521.92
2023-12-28T12:13:10.441Z,521.92
2023-12-28T12:14:10.425Z,519.51
2023-12-28T12:15:10.497Z,522.33
2023-12-28T12:16:10.718Z,521.92
2023-12-28T12:17:10.657Z,517.52
2023-12-28T12:18:10.840Z,516.33
2023-12-28T12:19:10.924Z,511.63
2023-12-28T12:20:10.949Z,515.93
2023-12-28T12:21:11.021Z,520.71
2023-12-28T12:22:11.057Z,524.36
2023-12-28T12:23:11.186Z,523.54
2023-12-28T12:24:11.254Z,521.52
2023-12-28T12:25:11.294Z,524.36
2023-12-28T12:26:11.372Z,526.41
2023-12-28T12:27:11.442Z,521.92
2023-12-28T12:28:11.552Z,518.71
2023-12-28T12:29:11.635Z,514.75